Time,TemperatureF,DewpointF,PressureIn,WindDirection,WindDirectionDegrees,WindSpeedMPH,WindSpeedGustMPH,Humidity,HourlyPrecipIn,Conditions,Clouds,dailyrainin,SoftwareType,DateUTC
2013-03-08 00:00:00,19.5,16.5,30.45,NNE,17,0.0,0.0,88,0.00,,,0.00,Wunderground v.1.15,2013-03-08 05:00:00,
2013-03-08 00:03:00,19.4,16.4,30.45,NNE,17,0.0,0.0,88,0.00,,,0.00,Wunderground v.1.15,2013-03-08 05:03:00,
2013-03-08 00:05:00,19.3,16.3,30.45,NNE,17,0.0,0.0,88,0.00,,,0.00,Wunderground v.1.15,2013-03-08 05:05:00,
2013-03-08 00:11:00,18.9,15.9,30.45,NNE,17,0.0,0.0,88,0.00,,,0.00,Wunderground v.1.15,2013-03-08 05:11:00,
2013-03-08 00:16:00,18.8,15.8,30.45,NNE,17,0.0,0.0,88,0.00,,,0.00,Wunderground v.1.15,2013-03-08 05:16:00,
2013-03-08 00:22:00,18.6,15.9,30.45,NNE,17,0.0,0.0,89,0.00,,,0.00,Wunderground v.1.15,2013-03-08 05:22:00,
2013-03-08 00:27:00,18.5,15.8,30.45,NNE,17,0.0,0.0,89,0.00,,,0.00,Wunderground v.1.15,2013-03-08 05:27:00,
2013-03-08 00:32:00,18.4,15.7,30.45,NNE,17,0.0,0.0,89,0.00,,,0.00,Wunderground v.1.15,2013-03-08 05:32:00,
2013-03-08 00:38:00,18.4,15.7,30.45,NNE,17,0.0,0.0,89,0.00,,,0.00,Wunderground v.1.15,2013-03-08 05:38:00,
2013-03-08 00:43:00,18.4,16.0,30.46,NNE,17,0.0,0.0,90,0.00,,,0.00,Wunderground v.1.15,2013-03-08 05:43:00,
2013-03-08 00:49:00,18.4,16.0,30.46,NNE,17,0.0,0.0,90,0.00,,,0.00,Wunderground v.1.15,2013-03-08 05:49:00,
2013-03-08 00:54:00,18.2,15.8,30.46,NNE,17,0.0,0.0,90,0.00,,,0.00,Wunderground v.1.15,2013-03-08 05:54:00,
2013-03-08 01:00:00,18.2,15.8,30.46,NNE,17,0.0,0.0,90,0.00,,,0.00,Wunderground v.1.15,2013-03-08 06:00:00,
2013-03-08 01:05:00,18.1,15.7,30.46,NNE,17,0.0,0.0,90,0.00,,,0.00,Wunderground v.1.15,2013-03-08 06:05:00,
2013-03-08 01:11:00,17.8,15.4,30.46,NNE,17,0.0,0.0,90,0.00,,,0.00,Wunderground v.1.15,2013-03-08 06:11:00,
2013-03-08 01:16:00,17.6,14.9,30.46,NNE,17,0.0,0.0,89,0.00,,,0.00,Wunderground v.1.15,2013-03-08 06:16:00,
2013-03-08 01:22:00,17.5,15.1,30.46,NNE,17,0.0,0.0,90,0.00,,,0.00,Wunderground v.1.15,2013-03-08 06:22:00,
2013-03-08 01:27:00,17.4,15.0,30.47,NNE,17,0.0,0.0,90,0.00,,,0.00,Wunderground v.1.15,2013-03-08 06:27:00,
2013-03-08 01:33:00,17.4,15.0,30.47,NNE,17,0.0,0.0,90,0.00,,,0.00,Wunderground v.1.15,2013-03-08 06:33:00,
2013-03-08 01:39:00,17.3,14.9,30.47,NNE,17,0.0,0.0,90,0.00,,,0.00,Wunderground v.1.15,2013-03-08 06:39:00,
2013-03-08 01:44:00,17.3,15.1,30.47,NNE,17,0.0,0.0,91,0.00,,,0.00,Wunderground v.1.15,2013-03-08 06:44:00,
2013-03-08 01:50:00,17.3,15.1,30.47,NNE,17,0.0,0.0,91,0.00,,,0.00,Wunderground v.1.15,2013-03-08 06:50:00,
2013-03-08 01:55:00,17.4,15.2,30.47,NNE,17,0.0,0.0,91,0.00,,,0.00,Wunderground v.1.15,2013-03-08 06:55:00,
2013-03-08 02:01:00,17.3,15.1,30.48,NNE,17,0.0,0.0,91,0.00,,,0.00,Wunderground v.1.15,2013-03-08 07:01:00,
2013-03-08 02:06:00,17.3,15.1,30.48,NNE,17,0.0,1.0,91,0.00,,,0.00,Wunderground v.1.15,2013-03-08 07:06:00,
2013-03-08 02:12:00,17.6,15.4,30.48,NNE,17,0.0,0.0,91,0.00,,,0.00,Wunderground v.1.15,2013-03-08 07:12:00,
2013-03-08 02:17:00,17.6,15.4,30.48,NNE,17,0.0,0.0,91,0.00,,,0.00,Wunderground v.1.15,2013-03-08 07:17:00,
2013-03-08 02:23:00,17.5,15.3,30.48,NNE,17,0.0,1.0,91,0.00,,,0.00,Wunderground v.1.15,2013-03-08 07:23:00,
2013-03-08 02:29:00,17.5,15.3,30.48,NNE,17,0.0,1.0,91,0.00,,,0.00,Wunderground v.1.15,2013-03-08 07:29:00,
2013-03-08 02:34:00,17.5,15.3,30.48,NNE,17,0.0,0.0,91,0.00,,,0.00,Wunderground v.1.15,2013-03-08 07:34:00,
2013-03-08 02:39:00,17.5,15.3,30.49,NNE,17,0.0,0.0,91,0.00,,,0.00,Wunderground v.1.15,2013-03-08 07:39:00,
2013-03-08 02:45:00,17.4,15.2,30.49,NNE,17,0.0,0.0,91,0.00,,,0.00,Wunderground v.1.15,2013-03-08 07:45:00,
2013-03-08 02:50:00,17.4,15.2,30.49,NNE,17,0.0,0.0,91,0.00,,,0.00,Wunderground v.1.15,2013-03-08 07:50:00,
2013-03-08 02:55:00,17.3,15.1,30.49,NNE,17,0.0,0.0,91,0.00,,,0.00,Wunderground v.1.15,2013-03-08 07:55:00,
2013-03-08 03:01:00,17.2,15.0,30.49,NNE,17,0.0,0.0,91,0.00,,,0.00,Wunderground v.1.15,2013-03-08 08:01:00,
2013-03-08 03:06:00,17.1,14.9,30.49,NNE,17,0.0,0.0,91,0.00,,,0.00,Wunderground v.1.15,2013-03-08 08:06:00,
2013-03-08 03:12:00,16.9,14.7,30.49,NNE,17,0.0,0.0,91,0.00,,,0.00,Wunderground v.1.15,2013-03-08 08:12:00,
2013-03-08 03:17:00,16.8,14.6,30.49,NNE,17,0.0,0.0,91,0.00,,,0.00,Wunderground v.1.15,2013-03-08 08:17:00,
2013-03-08 03:24:00,16.7,14.5,30.49,NNE,17,0.0,0.0,91,0.00,,,0.00,Wunderground v.1.15,2013-03-08 08:24:00,
2013-03-08 03:30:00,16.7,14.5,30.50,NNE,17,0.0,0.0,91,0.00,,,0.00,Wunderground v.1.15,2013-03-08 08:30:00,
2013-03-08 03:35:00,16.7,14.5,30.50,NNE,17,0.0,0.0,91,0.00,,,0.00,Wunderground v.1.15,2013-03-08 08:35:00,
2013-03-08 03:41:00,16.7,14.8,30.50,NNE,17,0.0,0.0,92,0.00,,,0.00,Wunderground v.1.15,2013-03-08 08:41:00,
2013-03-08 03:46:00,16.6,14.7,30.50,NNE,17,0.0,0.0,92,0.00,,,0.00,Wunderground v.1.15,2013-03-08 08:46:00,
2013-03-08 03:52:00,16.5,14.3,30.50,NNE,17,0.0,0.0,91,0.00,,,0.00,Wunderground v.1.15,2013-03-08 08:52:00,
2013-03-08 03:57:00,16.4,14.2,30.50,NNE,17,0.0,0.0,91,0.00,,,0.00,Wunderground v.1.15,2013-03-08 08:57:00,
2013-03-08 04:02:00,16.3,14.1,30.50,NNE,17,0.0,0.0,91,0.00,,,0.00,Wunderground v.1.15,2013-03-08 09:02:00,
2013-03-08 04:07:00,16.3,14.1,30.50,NNE,17,0.0,0.0,91,0.00,,,0.00,Wunderground v.1.15,2013-03-08 09:07:00,
2013-03-08 04:13:00,16.2,14.3,30.50,NNE,17,0.0,0.0,92,0.00,,,0.00,Wunderground v.1.15,2013-03-08 09:13:00,
2013-03-08 04:19:00,16.1,14.2,30.50,NNE,17,0.0,0.0,92,0.00,,,0.00,Wunderground v.1.15,2013-03-08 09:19:00,
2013-03-08 04:24:00,16.1,13.9,30.50,NNE,17,0.0,0.0,91,0.00,,,0.00,Wunderground v.1.15,2013-03-08 09:24:00,
2013-03-08 04:30:00,16.0,13.8,30.50,NNE,17,0.0,0.0,91,0.00,,,0.00,Wunderground v.1.15,2013-03-08 09:30:00,
2013-03-08 04:36:00,16.0,13.8,30.50,NNE,17,0.0,0.0,91,0.00,,,0.00,Wunderground v.1.15,2013-03-08 09:36:00,
2013-03-08 04:41:00,16.0,14.1,30.50,NNE,17,0.0,0.0,92,0.00,,,0.00,Wunderground v.1.15,2013-03-08 09:41:00,
2013-03-08 04:47:00,16.1,14.2,30.51,NNE,17,0.0,0.0,92,0.00,,,0.00,Wunderground v.1.15,2013-03-08 09:47:00,
2013-03-08 04:52:00,16.1,14.2,30.51,NNE,17,0.0,0.0,92,0.00,,,0.00,Wunderground v.1.15,2013-03-08 09:52:00,
2013-03-08 04:58:00,16.1,14.2,30.51,NNE,17,0.0,0.0,92,0.00,,,0.00,Wunderground v.1.15,2013-03-08 09:58:00,
2013-03-08 05:03:00,16.0,13.8,30.51,NNE,17,0.0,0.0,91,0.00,,,0.00,Wunderground v.1.15,2013-03-08 10:03:00,
2013-03-08 05:09:00,15.9,14.0,30.51,NNE,17,0.0,0.0,92,0.00,,,0.00,Wunderground v.1.15,2013-03-08 10:09:00,
2013-03-08 05:15:00,15.9,14.0,30.51,NNE,17,0.0,0.0,92,0.00,,,0.00,Wunderground v.1.15,2013-03-08 10:15:00,
2013-03-08 05:21:00,15.8,13.9,30.51,NNE,17,0.0,0.0,92,0.00,,,0.00,Wunderground v.1.15,2013-03-08 10:21:00,
2013-03-08 05:26:00,15.7,13.8,30.52,NNE,17,0.0,0.0,92,0.00,,,0.00,Wunderground v.1.15,2013-03-08 10:26:00,
2013-03-08 05:31:00,15.7,13.8,30.52,NNE,17,0.0,0.0,92,0.00,,,0.00,Wunderground v.1.15,2013-03-08 10:31:00,
2013-03-08 05:37:00,15.6,13.7,30.51,NNE,17,0.0,0.0,92,0.00,,,0.00,Wunderground v.1.15,2013-03-08 10:37:00,
2013-03-08 05:42:00,15.6,13.7,30.51,NNE,17,0.0,0.0,92,0.00,,,0.00,Wunderground v.1.15,2013-03-08 10:42:00,
2013-03-08 05:47:00,15.5,13.6,30.52,NNE,17,0.0,0.0,92,0.00,,,0.00,Wunderground v.1.15,2013-03-08 10:47:00,
2013-03-08 05:53:00,15.6,13.7,30.51,NNE,17,0.0,0.0,92,0.00,,,0.00,Wunderground v.1.15,2013-03-08 10:53:00,
2013-03-08 05:59:00,15.8,13.9,30.51,NNE,17,0.0,0.0,92,0.00,,,0.00,Wunderground v.1.15,2013-03-08 10:59:00,
2013-03-08 06:04:00,15.9,14.0,30.51,NNE,17,0.0,0.0,92,0.00,,,0.00,Wunderground v.1.15,2013-03-08 11:04:00,
2013-03-08 06:10:00,15.9,14.0,30.51,NNE,17,0.0,0.0,92,0.00,,,0.00,Wunderground v.1.15,2013-03-08 11:10:00,
2013-03-08 06:15:00,15.9,14.0,30.51,NNE,17,0.0,0.0,92,0.00,,,0.00,Wunderground v.1.15,2013-03-08 11:15:00,
2013-03-08 06:21:00,15.8,13.9,30.51,NNE,17,0.0,0.0,92,0.00,,,0.00,Wunderground v.1.15,2013-03-08 11:21:00,
2013-03-08 06:26:00,15.6,13.4,30.51,NNE,17,0.0,0.0,91,0.00,,,0.00,Wunderground v.1.15,2013-03-08 11:26:00,
2013-03-08 06:32:00,15.5,13.3,30.52,NNE,17,0.0,0.0,91,0.00,,,0.00,Wunderground v.1.15,2013-03-08 11:32:00,
2013-03-08 06:38:00,15.5,13.3,30.52,NNE,17,0.0,0.0,91,0.00,,,0.00,Wunderground v.1.15,2013-03-08 11:38:00,
2013-03-08 06:43:00,15.3,13.1,30.52,NNE,17,0.0,0.0,91,0.00,,,0.00,Wunderground v.1.15,2013-03-08 11:43:00,
2013-03-08 06:49:00,15.3,13.1,30.52,NNE,17,0.0,0.0,91,0.00,,,0.00,Wunderground v.1.15,2013-03-08 11:49:00,
2013-03-08 06:54:00,15.3,13.1,30.53,NNE,17,0.0,0.0,91,0.00,,,0.00,Wunderground v.1.15,2013-03-08 11:54:00,
2013-03-08 07:00:00,15.4,13.5,30.53,NNE,17,0.0,0.0,92,0.00,,,0.00,Wunderground v.1.15,2013-03-08 12:00:00,
2013-03-08 07:05:00,15.5,13.6,30.54,NNE,17,0.0,0.0,92,0.00,,,0.00,Wunderground v.1.15,2013-03-08 12:05:00,
2013-03-08 07:11:00,15.5,13.6,30.54,NNE,17,0.0,0.0,92,0.00,,,0.00,Wunderground v.1.15,2013-03-08 12:11:00,
2013-03-08 07:16:00,15.5,13.6,30.54,NNE,17,0.0,0.0,92,0.00,,,0.00,Wunderground v.1.15,2013-03-08 12:16:00,
2013-03-08 07:22:00,15.5,13.6,30.55,NNE,17,0.0,0.0,92,0.00,,,0.00,Wunderground v.1.15,2013-03-08 12:22:00,
2013-03-08 07:27:00,15.5,13.6,30.54,NNE,17,0.0,0.0,92,0.00,,,0.00,Wunderground v.1.15,2013-03-08 12:27:00,
2013-03-08 07:33:00,15.6,13.7,30.55,NNE,17,0.0,0.0,92,0.00,,,0.00,Wunderground v.1.15,2013-03-08 12:33:00,
2013-03-08 07:39:00,16.0,14.1,30.55,NNE,17,0.0,0.0,92,0.00,,,0.00,Wunderground v.1.15,2013-03-08 12:39:00,
2013-03-08 07:44:00,16.6,14.9,30.55,NNE,17,0.0,0.0,93,0.00,,,0.00,Wunderground v.1.15,2013-03-08 12:44:00,
2013-03-08 07:50:00,17.3,15.6,30.55,NNE,17,0.0,0.0,93,0.00,,,0.00,Wunderground v.1.15,2013-03-08 12:50:00,
2013-03-08 07:55:00,18.3,16.9,30.55,NNE,17,0.0,0.0,94,0.00,,,0.00,Wunderground v.1.15,2013-03-08 12:55:00,
2013-03-08 08:00:00,19.0,17.6,30.54,NNE,17,0.0,0.0,94,0.00,,,0.00,Wunderground v.1.15,2013-03-08 13:00:00,
2013-03-08 08:06:00,19.8,18.4,30.54,NNE,17,0.0,0.0,94,0.00,,,0.00,Wunderground v.1.15,2013-03-08 13:06:00,
2013-03-08 08:11:00,20.8,19.3,30.55,NNE,17,0.0,0.0,94,0.00,,,0.00,Wunderground v.1.15,2013-03-08 13:11:00,
2013-03-08 08:16:00,21.5,20.0,30.54,NNE,17,0.0,0.0,94,0.00,,,0.00,Wunderground v.1.15,2013-03-08 13:16:00,
2013-03-08 08:22:00,22.4,20.9,30.54,NNE,17,0.0,0.0,94,0.00,,,0.00,Wunderground v.1.15,2013-03-08 13:22:00,
2013-03-08 08:28:00,23.2,21.7,30.55,NNE,17,0.0,2.0,94,0.00,,,0.00,Wunderground v.1.15,2013-03-08 13:28:00,
2013-03-08 08:33:00,23.8,22.1,30.54,NNE,17,0.0,1.0,93,0.00,,,0.00,Wunderground v.1.15,2013-03-08 13:33:00,
2013-03-08 08:38:00,24.4,22.4,30.54,NNE,17,0.0,1.0,92,0.00,,,0.00,Wunderground v.1.15,2013-03-08 13:38:00,
2013-03-08 08:43:00,24.7,22.7,30.55,NNE,17,0.0,0.0,92,0.00,,,0.00,Wunderground v.1.15,2013-03-08 13:43:00,
2013-03-08 08:49:00,25.0,22.5,30.55,NNE,19,0.0,0.0,90,0.00,,,0.00,Wunderground v.1.15,2013-03-08 13:49:00,
2013-03-08 08:54:00,25.8,23.3,30.55,NNE,19,0.0,2.0,90,0.00,,,0.00,Wunderground v.1.15,2013-03-08 13:54:00,
2013-03-08 09:00:00,26.7,23.6,30.55,NNE,19,0.0,0.0,88,0.00,,,0.00,Wunderground v.1.15,2013-03-08 14:00:00,
2013-03-08 09:05:00,27.2,23.8,30.55,NNE,18,0.0,1.0,87,0.00,,,0.00,Wunderground v.1.15,2013-03-08 14:05:00,
2013-03-08 09:11:00,27.7,23.8,30.55,NNE,18,0.0,0.0,85,0.00,,,0.00,Wunderground v.1.15,2013-03-08 14:11:00,
2013-03-08 09:16:00,28.0,23.8,30.55,NNE,18,0.0,2.0,84,0.00,,,0.00,Wunderground v.1.15,2013-03-08 14:16:00,
2013-03-08 09:23:00,28.4,24.2,30.56,NNE,18,1.0,2.0,84,0.00,,,0.00,Wunderground v.1.15,2013-03-08 14:23:00,
2013-03-08 09:28:00,28.8,24.3,30.56,NNE,18,1.0,3.0,83,0.00,,,0.00,Wunderground v.1.15,2013-03-08 14:28:00,
2013-03-08 09:34:00,29.4,24.3,30.56,NNE,19,2.0,3.0,81,0.00,,,0.00,Wunderground v.1.15,2013-03-08 14:34:00,
2013-03-08 09:40:00,29.8,24.4,30.56,NNE,18,1.0,2.0,80,0.00,,,0.00,Wunderground v.1.15,2013-03-08 14:40:00,
2013-03-08 09:45:00,29.9,24.5,30.56,NNE,14,1.0,2.0,80,0.00,,,0.00,Wunderground v.1.15,2013-03-08 14:45:00,
2013-03-08 09:51:00,30.2,24.5,30.56,NNE,14,2.0,3.0,79,0.00,,,0.00,Wunderground v.1.15,2013-03-08 14:51:00,
2013-03-08 09:56:00,30.6,24.6,30.56,NNE,14,1.0,3.0,78,0.00,,,0.00,Wunderground v.1.15,2013-03-08 14:56:00,
2013-03-08 10:02:00,31.1,25.0,30.56,NNE,15,1.0,4.0,78,0.00,,,0.00,Wunderground v.1.15,2013-03-08 15:02:00,
2013-03-08 10:08:00,31.4,24.7,30.56,North,355,3.0,4.0,76,0.00,,,0.00,Wunderground v.1.15,2013-03-08 15:08:00,
2013-03-08 10:14:00,31.4,24.4,30.56,North,10,2.0,4.0,75,0.00,,,0.00,Wunderground v.1.15,2013-03-08 15:14:00,
2013-03-08 10:19:00,31.6,24.6,30.56,NNE,22,2.0,3.0,75,0.00,,,0.00,Wunderground v.1.15,2013-03-08 15:19:00,
2013-03-08 10:25:00,31.9,24.6,30.56,NNW,346,2.0,4.0,74,0.00,,,0.00,Wunderground v.1.15,2013-03-08 15:25:00,
2013-03-08 10:31:00,32.2,25.2,30.55,North,360,2.0,4.0,75,0.00,,,0.00,Wunderground v.1.15,2013-03-08 15:31:00,
2013-03-08 10:36:00,32.6,25.2,30.56,NNE,19,2.0,4.0,74,0.00,,,0.00,Wunderground v.1.15,2013-03-08 15:36:00,
2013-03-08 10:42:00,32.6,24.6,30.56,NNE,21,3.0,6.0,72,0.00,,,0.00,Wunderground v.1.15,2013-03-08 15:42:00,
2013-03-08 10:48:00,32.7,24.7,30.56,East,82,4.0,6.0,72,0.00,,,0.00,Wunderground v.1.15,2013-03-08 15:48:00,
2013-03-08 10:54:00,33.5,25.4,30.56,NE,40,2.0,3.0,72,0.00,,,0.00,Wunderground v.1.15,2013-03-08 15:54:00,
2013-03-08 10:59:00,34.3,25.2,30.56,ENE,76,2.0,4.0,69,0.00,,,0.00,Wunderground v.1.15,2013-03-08 15:59:00,
2013-03-08 11:04:00,34.4,24.2,30.56,NE,38,3.0,5.0,66,0.00,,,0.00,Wunderground v.1.15,2013-03-08 16:04:00,
2013-03-08 11:10:00,34.9,25.0,30.56,NE,35,2.0,3.0,67,0.00,,,0.00,Wunderground v.1.15,2013-03-08 16:10:00,
2013-03-08 11:16:00,35.1,25.2,30.56,North,11,2.0,3.0,67,0.00,,,0.00,Wunderground v.1.15,2013-03-08 16:16:00,
2013-03-08 11:22:00,34.6,24.8,30.56,NNW,345,3.0,5.0,67,0.00,,,0.00,Wunderground v.1.15,2013-03-08 16:22:00,
2013-03-08 11:27:00,34.4,25.3,30.55,North,355,2.0,7.0,69,0.00,,,0.00,Wunderground v.1.15,2013-03-08 16:27:00,
2013-03-08 11:33:00,34.5,24.7,30.55,NE,46,2.0,5.0,67,0.00,,,0.00,Wunderground v.1.15,2013-03-08 16:33:00,
2013-03-08 11:39:00,34.8,25.0,30.55,North,355,2.0,5.0,67,0.00,,,0.00,Wunderground v.1.15,2013-03-08 16:39:00,
2013-03-08 11:44:00,34.8,25.3,30.55,NNE,32,2.0,5.0,68,0.00,,,0.00,Wunderground v.1.15,2013-03-08 16:44:00,
2013-03-08 11:50:00,35.0,25.1,30.55,North,5,2.0,2.0,67,0.00,,,0.00,Wunderground v.1.15,2013-03-08 16:50:00,
2013-03-08 11:55:00,35.2,25.3,30.55,North,355,2.0,3.0,67,0.00,,,0.00,Wunderground v.1.15,2013-03-08 16:55:00,
2013-03-08 12:00:00,35.5,26.0,30.55,NNE,14,3.0,3.0,68,0.00,,,0.00,Wunderground v.1.15,2013-03-08 17:00:00,
2013-03-08 12:06:00,35.9,25.6,30.55,NNE,17,3.0,5.0,66,0.00,,,0.00,Wunderground v.1.15,2013-03-08 17:06:00,
2013-03-08 12:11:00,36.1,25.8,30.55,NNE,26,3.0,3.0,66,0.00,,,0.00,Wunderground v.1.15,2013-03-08 17:11:00,
2013-03-08 12:16:00,36.4,26.1,30.55,NNE,26,2.0,5.0,66,0.00,,,0.00,Wunderground v.1.15,2013-03-08 17:16:00,
2013-03-08 12:21:00,36.8,26.5,30.54,NNE,23,2.0,3.0,66,0.00,,,0.00,Wunderground v.1.15,2013-03-08 17:21:00,
2013-03-08 12:27:00,37.5,27.2,30.54,ENE,76,2.0,3.0,66,0.00,,,0.00,Wunderground v.1.15,2013-03-08 17:27:00,
2013-03-08 12:33:00,37.9,27.2,30.53,SE,134,1.0,6.0,65,0.00,,,0.00,Wunderground v.1.15,2013-03-08 17:33:00,
2013-03-08 12:39:00,38.7,28.3,30.53,ESE,108,1.0,6.0,66,0.00,,,0.00,Wunderground v.1.15,2013-03-08 17:39:00,
2013-03-08 12:44:00,39.3,27.7,30.53,SSE,148,1.0,4.0,63,0.00,,,0.00,Wunderground v.1.15,2013-03-08 17:44:00,
2013-03-08 12:50:00,39.4,27.5,30.53,SSW,193,2.0,3.0,62,0.00,,,0.00,Wunderground v.1.15,2013-03-08 17:50:00,
2013-03-08 12:55:00,39.3,27.7,30.52,SSW,196,3.0,3.0,63,0.00,,,0.00,Wunderground v.1.15,2013-03-08 17:55:00,
2013-03-08 13:01:00,39.5,27.9,30.52,East,87,2.0,2.0,63,0.00,,,0.00,Wunderground v.1.15,2013-03-08 18:01:00,
2013-03-08 13:06:00,40.1,28.1,30.52,SE,132,1.0,3.0,62,0.00,,,0.00,Wunderground v.1.15,2013-03-08 18:06:00,
2013-03-08 13:12:00,40.4,28.0,30.51,WSW,241,1.0,4.0,61,0.00,,,0.00,Wunderground v.1.15,2013-03-08 18:12:00,
2013-03-08 13:17:00,40.5,28.1,30.51,South,180,1.0,4.0,61,0.00,,,0.00,Wunderground v.1.15,2013-03-08 18:17:00,
2013-03-08 13:23:00,40.7,28.3,30.51,SE,125,1.0,4.0,61,0.00,,,0.00,Wunderground v.1.15,2013-03-08 18:23:00,
2013-03-08 13:29:00,41.0,28.6,30.51,South,178,1.0,4.0,61,0.00,,,0.00,Wunderground v.1.15,2013-03-08 18:29:00,
2013-03-08 13:34:00,41.2,28.4,30.51,South,178,0.0,1.0,60,0.00,,,0.00,Wunderground v.1.15,2013-03-08 18:34:00,
2013-03-08 13:40:00,41.4,28.9,30.50,NE,38,1.0,1.0,61,0.00,,,0.00,Wunderground v.1.15,2013-03-08 18:40:00,
2013-03-08 13:45:00,41.8,29.3,30.50,East,83,1.0,2.0,61,0.00,,,0.00,Wunderground v.1.15,2013-03-08 18:45:00,
2013-03-08 13:50:00,42.3,28.6,30.50,ENE,76,1.0,1.0,58,0.00,,,0.00,Wunderground v.1.15,2013-03-08 18:50:00,
2013-03-08 13:56:00,42.4,29.1,30.50,ENE,68,1.0,2.0,59,0.00,,,0.00,Wunderground v.1.15,2013-03-08 18:56:00,
2013-03-08 14:02:00,42.6,28.8,30.50,South,171,0.0,1.0,58,0.00,,,0.00,Wunderground v.1.15,2013-03-08 19:02:00,
2013-03-08 14:07:00,43.0,28.8,30.50,West,269,1.0,3.0,57,0.00,,,0.00,Wunderground v.1.15,2013-03-08 19:07:00,
2013-03-08 14:13:00,42.9,28.7,30.50,WSW,249,1.0,2.0,57,0.00,,,0.00,Wunderground v.1.15,2013-03-08 19:13:00,
2013-03-08 14:19:00,43.1,28.9,30.50,SW,229,1.0,6.0,57,0.00,,,0.00,Wunderground v.1.15,2013-03-08 19:19:00,
2013-03-08 14:25:00,43.2,29.0,30.50,SW,225,0.0,1.0,57,0.00,,,0.00,Wunderground v.1.15,2013-03-08 19:25:00,
2013-03-08 14:30:00,43.0,28.4,30.50,SW,225,0.0,1.0,56,0.00,,,0.00,Wunderground v.1.15,2013-03-08 19:30:00,
2013-03-08 14:36:00,42.2,27.6,30.50,WSW,239,1.0,4.0,56,0.00,,,0.00,Wunderground v.1.15,2013-03-08 19:36:00,
2013-03-08 14:41:00,41.9,28.6,30.50,WSW,242,1.0,1.0,59,0.00,,,0.00,Wunderground v.1.15,2013-03-08 19:41:00,
2013-03-08 14:46:00,42.1,28.8,30.50,WSW,252,0.0,2.0,59,0.00,,,0.00,Wunderground v.1.15,2013-03-08 19:46:00,
2013-03-08 14:51:00,42.6,28.8,30.49,WSW,253,1.0,1.0,58,0.00,,,0.00,Wunderground v.1.15,2013-03-08 19:51:00,
2013-03-08 14:57:00,42.7,28.9,30.49,SW,223,1.0,5.0,58,0.00,,,0.00,Wunderground v.1.15,2013-03-08 19:57:00,
2013-03-08 15:03:00,42.9,28.7,30.49,SW,218,1.0,4.0,57,0.00,,,0.00,Wunderground v.1.15,2013-03-08 20:03:00,
2013-03-08 15:09:00,42.9,28.3,30.49,SW,222,1.0,4.0,56,0.00,,,0.00,Wunderground v.1.15,2013-03-08 20:09:00,
2013-03-08 15:14:00,42.8,28.2,30.49,SW,222,1.0,1.0,56,0.00,,,0.00,Wunderground v.1.15,2013-03-08 20:14:00,
2013-03-08 15:20:00,43.4,29.2,30.49,SW,228,0.0,3.0,57,0.00,,,0.00,Wunderground v.1.15,2013-03-08 20:20:00,
2013-03-08 15:25:00,43.2,28.5,30.49,West,265,2.0,4.0,56,0.00,,,0.00,Wunderground v.1.15,2013-03-08 20:25:00,
2013-03-08 15:31:00,43.2,28.5,30.49,WSW,247,2.0,2.0,56,0.00,,,0.00,Wunderground v.1.15,2013-03-08 20:31:00,
2013-03-08 15:36:00,43.4,28.3,30.49,WSW,247,1.0,2.0,55,0.00,,,0.00,Wunderground v.1.15,2013-03-08 20:36:00,
2013-03-08 15:42:00,43.2,28.1,30.49,West,265,1.0,2.0,55,0.00,,,0.00,Wunderground v.1.15,2013-03-08 20:42:00,
2013-03-08 15:47:00,43.0,28.4,30.49,NW,319,2.0,3.0,56,0.00,,,0.00,Wunderground v.1.15,2013-03-08 20:47:00,
2013-03-08 15:53:00,43.2,28.1,30.49,NW,318,1.0,1.0,55,0.00,,,0.00,Wunderground v.1.15,2013-03-08 20:53:00,
2013-03-08 15:59:00,43.2,28.5,30.49,NW,313,1.0,5.0,56,0.00,,,0.00,Wunderground v.1.15,2013-03-08 20:59:00,
2013-03-08 16:04:00,43.1,28.5,30.49,NW,313,2.0,3.0,56,0.00,,,0.00,Wunderground v.1.15,2013-03-08 21:04:00,
2013-03-08 16:09:00,43.3,28.6,30.49,NW,311,1.0,5.0,56,0.00,,,0.00,Wunderground v.1.15,2013-03-08 21:09:00,
2013-03-08 16:14:00,43.3,28.2,30.49,NW,311,1.0,4.0,55,0.00,,,0.00,Wunderground v.1.15,2013-03-08 21:14:00,
2013-03-08 16:20:00,42.7,28.9,30.49,NNW,346,3.0,3.0,58,0.00,,,0.00,Wunderground v.1.15,2013-03-08 21:20:00,
2013-03-08 16:25:00,42.1,29.6,30.49,NNE,21,4.0,7.0,61,0.00,,,0.00,Wunderground v.1.15,2013-03-08 21:25:00,
2013-03-08 16:30:00,42.2,29.3,30.48,NNE,25,4.0,5.0,60,0.00,,,0.00,Wunderground v.1.15,2013-03-08 21:30:00,
2013-03-08 16:36:00,42.4,29.5,30.48,NNE,29,4.0,7.0,60,0.00,,,0.00,Wunderground v.1.15,2013-03-08 21:36:00,
2013-03-08 16:41:00,42.4,29.9,30.48,NNE,30,3.0,4.0,61,0.00,,,0.00,Wunderground v.1.15,2013-03-08 21:41:00,
2013-03-08 16:47:00,42.3,29.0,30.48,NNE,22,3.0,5.0,59,0.00,,,0.00,Wunderground v.1.15,2013-03-08 21:47:00,
2013-03-08 16:53:00,42.1,28.8,30.48,NNE,20,3.0,4.0,59,0.00,,,0.00,Wunderground v.1.15,2013-03-08 21:53:00,
2013-03-08 16:58:00,41.8,28.9,30.48,NNE,16,3.0,5.0,60,0.00,,,0.00,Wunderground v.1.15,2013-03-08 21:58:00,
2013-03-08 17:04:00,41.8,29.3,30.48,NNE,18,2.0,4.0,61,0.00,,,0.00,Wunderground v.1.15,2013-03-08 22:04:00,
2013-03-08 17:10:00,42.0,29.5,30.48,NNE,17,2.0,6.0,61,0.00,,,0.00,Wunderground v.1.15,2013-03-08 22:10:00,
2013-03-08 17:15:00,41.7,28.8,30.48,North,5,3.0,6.0,60,0.00,,,0.00,Wunderground v.1.15,2013-03-08 22:15:00,
2013-03-08 17:20:00,41.6,29.1,30.48,North,5,3.0,3.0,61,0.00,,,0.00,Wunderground v.1.15,2013-03-08 22:20:00,
2013-03-08 17:25:00,41.6,29.1,30.48,NNE,13,2.0,4.0,61,0.00,,,0.00,Wunderground v.1.15,2013-03-08 22:25:00,
2013-03-08 17:31:00,41.4,28.5,30.48,North,5,3.0,5.0,60,0.00,,,0.00,Wunderground v.1.15,2013-03-08 22:31:00,
2013-03-08 17:37:00,41.1,28.7,30.48,North,5,3.0,5.0,61,0.00,,,0.00,Wunderground v.1.15,2013-03-08 22:37:00,
2013-03-08 17:42:00,40.8,28.8,30.48,North,5,3.0,3.0,62,0.00,,,0.00,Wunderground v.1.15,2013-03-08 22:42:00,
2013-03-08 17:48:00,40.6,29.0,30.48,North,5,2.0,3.0,63,0.00,,,0.00,Wunderground v.1.15,2013-03-08 22:48:00,
2013-03-08 17:53:00,40.4,28.8,30.48,North,360,2.0,3.0,63,0.00,,,0.00,Wunderground v.1.15,2013-03-08 22:53:00,
2013-03-08 17:59:00,40.0,28.4,30.48,North,5,1.0,1.0,63,0.00,,,0.00,Wunderground v.1.15,2013-03-08 22:59:00,
2013-03-08 18:04:00,39.7,28.5,30.48,North,5,1.0,2.0,64,0.00,,,0.00,Wunderground v.1.15,2013-03-08 23:04:00,
2013-03-08 18:10:00,39.3,28.5,30.48,North,360,1.0,3.0,65,0.00,,,0.00,Wunderground v.1.15,2013-03-08 23:10:00,
2013-03-08 18:16:00,39.0,28.6,30.48,North,360,1.0,3.0,66,0.00,,,0.00,Wunderground v.1.15,2013-03-08 23:16:00,
2013-03-08 18:21:00,38.7,28.3,30.48,North,5,0.0,1.0,66,0.00,,,0.00,Wunderground v.1.15,2013-03-08 23:21:00,
2013-03-08 18:27:00,38.4,28.0,30.48,North,5,0.0,1.0,66,0.00,,,0.00,Wunderground v.1.15,2013-03-08 23:27:00,
2013-03-08 18:32:00,38.2,28.2,30.48,North,5,0.0,0.0,67,0.00,,,0.00,Wunderground v.1.15,2013-03-08 23:32:00,
2013-03-08 18:38:00,37.8,27.8,30.48,North,360,0.0,0.0,67,0.00,,,0.00,Wunderground v.1.15,2013-03-08 23:38:00,
2013-03-08 18:43:00,37.4,27.8,30.48,North,5,0.0,0.0,68,0.00,,,0.00,Wunderground v.1.15,2013-03-08 23:43:00,
2013-03-08 18:49:00,36.9,27.3,30.48,North,360,0.0,0.0,68,0.00,,,0.00,Wunderground v.1.15,2013-03-08 23:49:00,
2013-03-08 18:54:00,36.4,27.2,30.48,North,5,0.0,0.0,69,0.00,,,0.00,Wunderground v.1.15,2013-03-08 23:54:00,
2013-03-08 19:00:00,35.9,27.1,30.48,North,360,0.0,0.0,70,0.00,,,0.00,Wunderground v.1.15,2013-03-09 00:00:00,
2013-03-08 19:05:00,35.4,26.9,30.48,North,360,0.0,0.0,71,0.00,,,0.00,Wunderground v.1.15,2013-03-09 00:05:00,
2013-03-08 19:11:00,34.8,26.7,30.48,North,5,0.0,0.0,72,0.00,,,0.00,Wunderground v.1.15,2013-03-09 00:11:00,
2013-03-08 19:17:00,34.4,26.6,30.48,North,5,0.0,0.0,73,0.00,,,0.00,Wunderground v.1.15,2013-03-09 00:17:00,
2013-03-08 19:22:00,34.0,26.6,30.48,North,5,0.0,0.0,74,0.00,,,0.00,Wunderground v.1.15,2013-03-09 00:22:00,
2013-03-08 19:27:00,33.7,26.6,30.48,North,5,0.0,0.0,75,0.00,,,0.00,Wunderground v.1.15,2013-03-09 00:27:00,
2013-03-08 19:33:00,33.3,26.2,30.47,North,5,0.0,0.0,75,0.00,,,0.00,Wunderground v.1.15,2013-03-09 00:33:00,
2013-03-08 19:38:00,32.9,26.2,30.47,North,5,0.0,0.0,76,0.00,,,0.00,Wunderground v.1.15,2013-03-09 00:38:00,
2013-03-08 19:44:00,32.5,25.8,30.48,North,5,0.0,0.0,76,0.00,,,0.00,Wunderground v.1.15,2013-03-09 00:44:00,
2013-03-08 19:50:00,32.0,25.6,30.47,North,360,0.0,0.0,77,0.00,,,0.00,Wunderground v.1.15,2013-03-09 00:50:00,
2013-03-08 19:56:00,31.6,25.5,30.47,North,360,0.0,0.0,78,0.00,,,0.00,Wunderground v.1.15,2013-03-09 00:56:00,
2013-03-08 20:01:00,31.2,25.4,30.47,North,5,0.0,0.0,79,0.00,,,0.00,Wunderground v.1.15,2013-03-09 01:01:00,
2013-03-08 20:07:00,30.9,25.5,30.48,North,5,0.0,0.0,80,0.00,,,0.00,Wunderground v.1.15,2013-03-09 01:07:00,
2013-03-08 20:13:00,30.6,25.5,30.47,North,5,0.0,0.0,81,0.00,,,0.00,Wunderground v.1.15,2013-03-09 01:13:00,
2013-03-08 20:18:00,30.3,25.5,30.48,North,360,0.0,0.0,82,0.00,,,0.00,Wunderground v.1.15,2013-03-09 01:18:00,
2013-03-08 20:23:00,30.1,25.3,30.48,North,5,0.0,0.0,82,0.00,,,0.00,Wunderground v.1.15,2013-03-09 01:23:00,
2013-03-08 20:29:00,29.8,25.0,30.48,North,5,0.0,0.0,82,0.00,,,0.00,Wunderground v.1.15,2013-03-09 01:29:00,
2013-03-08 20:34:00,29.6,25.1,30.48,North,360,0.0,0.0,83,0.00,,,0.00,Wunderground v.1.15,2013-03-09 01:34:00,
2013-03-08 20:40:00,29.5,25.3,30.48,North,5,0.0,0.0,84,0.00,,,0.00,Wunderground v.1.15,2013-03-09 01:40:00,
2013-03-08 20:45:00,29.4,25.2,30.48,North,360,0.0,1.0,84,0.00,,,0.00,Wunderground v.1.15,2013-03-09 01:45:00,
2013-03-08 20:51:00,29.3,25.1,30.48,North,5,0.0,0.0,84,0.00,,,0.00,Wunderground v.1.15,2013-03-09 01:51:00,
2013-03-08 20:56:00,29.1,24.9,30.48,North,5,0.0,0.0,84,0.00,,,0.00,Wunderground v.1.15,2013-03-09 01:56:00,
2013-03-08 21:02:00,28.9,24.7,30.48,North,360,0.0,0.0,84,0.00,,,0.00,Wunderground v.1.15,2013-03-09 02:02:00,
2013-03-08 21:08:00,28.7,24.5,30.48,North,5,0.0,0.0,84,0.00,,,0.00,Wunderground v.1.15,2013-03-09 02:08:00,
2013-03-08 21:13:00,28.5,24.6,30.48,North,5,0.0,0.0,85,0.00,,,0.00,Wunderground v.1.15,2013-03-09 02:13:00,
2013-03-08 21:19:00,28.4,24.5,30.48,North,5,0.0,0.0,85,0.00,,,0.00,Wunderground v.1.15,2013-03-09 02:19:00,
2013-03-08 21:25:00,28.2,24.3,30.48,North,5,0.0,0.0,85,0.00,,,0.00,Wunderground v.1.15,2013-03-09 02:25:00,
2013-03-08 21:31:00,28.0,24.1,30.48,North,5,0.0,0.0,85,0.00,,,0.00,Wunderground v.1.15,2013-03-09 02:31:00,
2013-03-08 21:36:00,27.8,23.9,30.49,North,360,0.0,0.0,85,0.00,,,0.00,Wunderground v.1.15,2013-03-09 02:36:00,
2013-03-08 21:42:00,27.5,23.9,30.49,North,5,0.0,0.0,86,0.00,,,0.00,Wunderground v.1.15,2013-03-09 02:42:00,
2013-03-08 21:48:00,27.4,24.0,30.49,North,5,0.0,0.0,87,0.00,,,0.00,Wunderground v.1.15,2013-03-09 02:48:00,
2013-03-08 21:53:00,27.3,23.9,30.49,North,360,0.0,0.0,87,0.00,,,0.00,Wunderground v.1.15,2013-03-09 02:53:00,
2013-03-08 21:59:00,27.2,23.8,30.49,North,360,0.0,0.0,87,0.00,,,0.00,Wunderground v.1.15,2013-03-09 02:59:00,
2013-03-08 22:04:00,27.1,24.0,30.49,North,5,0.0,1.0,88,0.00,,,0.00,Wunderground v.1.15,2013-03-09 03:04:00,
2013-03-08 22:09:00,27.1,24.0,30.49,North,5,0.0,0.0,88,0.00,,,0.00,Wunderground v.1.15,2013-03-09 03:09:00,
2013-03-08 22:15:00,27.1,24.0,30.48,North,5,0.0,0.0,88,0.00,,,0.00,Wunderground v.1.15,2013-03-09 03:15:00,
2013-03-08 22:20:00,27.2,24.1,30.48,North,5,0.0,0.0,88,0.00,,,0.00,Wunderground v.1.15,2013-03-09 03:20:00,
2013-03-08 22:25:00,27.2,24.1,30.48,North,360,0.0,0.0,88,0.00,,,0.00,Wunderground v.1.15,2013-03-09 03:25:00,
2013-03-08 22:31:00,27.2,24.1,30.48,North,5,0.0,0.0,88,0.00,,,0.00,Wunderground v.1.15,2013-03-09 03:31:00,
2013-03-08 22:36:00,27.0,23.9,30.49,North,5,0.0,0.0,88,0.00,,,0.00,Wunderground v.1.15,2013-03-09 03:36:00,
2013-03-08 22:42:00,26.8,23.7,30.49,North,5,0.0,0.0,88,0.00,,,0.00,Wunderground v.1.15,2013-03-09 03:42:00,
2013-03-08 22:48:00,26.7,23.6,30.49,North,5,0.0,0.0,88,0.00,,,0.00,Wunderground v.1.15,2013-03-09 03:48:00,
2013-03-08 22:53:00,26.6,23.5,30.49,North,5,0.0,0.0,88,0.00,,,0.00,Wunderground v.1.15,2013-03-09 03:53:00,
2013-03-08 22:59:00,26.6,23.8,30.48,North,5,0.0,0.0,89,0.00,,,0.00,Wunderground v.1.15,2013-03-09 03:59:00,
2013-03-08 23:04:00,26.6,23.8,30.48,North,360,0.0,0.0,89,0.00,,,0.00,Wunderground v.1.15,2013-03-09 04:04:00,
2013-03-08 23:10:00,26.5,23.7,30.48,North,5,0.0,0.0,89,0.00,,,0.00,Wunderground v.1.15,2013-03-09 04:10:00,
2013-03-08 23:15:00,26.4,23.6,30.47,North,5,0.0,0.0,89,0.00,,,0.00,Wunderground v.1.15,2013-03-09 04:15:00,
2013-03-08 23:21:00,26.2,23.4,30.47,North,5,0.0,0.0,89,0.00,,,0.00,Wunderground v.1.15,2013-03-09 04:21:00,
2013-03-08 23:26:00,26.2,23.4,30.47,North,5,0.0,0.0,89,0.00,,,0.00,Wunderground v.1.15,2013-03-09 04:26:00,
2013-03-08 23:31:00,26.1,23.3,30.47,North,360,0.0,0.0,89,0.00,,,0.00,Wunderground v.1.15,2013-03-09 04:31:00,
2013-03-08 23:38:00,26.0,23.2,30.47,North,360,0.0,0.0,89,0.00,,,0.00,Wunderground v.1.15,2013-03-09 04:38:00,
2013-03-08 23:43:00,25.9,23.1,30.47,North,5,0.0,0.0,89,0.00,,,0.00,Wunderground v.1.15,2013-03-09 04:43:00,
2013-03-08 23:49:00,25.8,23.3,30.46,North,5,0.0,0.0,90,0.00,,,0.00,Wunderground v.1.15,2013-03-09 04:49:00,
2013-03-08 23:54:00,25.7,23.2,30.46,North,5,0.0,0.0,90,0.00,,,0.00,Wunderground v.1.15,2013-03-09 04:54:00,